createdAt,value
2019-05-14T00:01:03.136Z,27.23
2019-05-14T00:02:04.859Z,27.22
2019-05-14T00:03:06.270Z,27.24
2019-05-14T00:04:08.829Z,27.23
2019-05-14T00:05:12.175Z,27.20
2019-05-14T00:06:13.553Z,27.31
2019-05-14T00:07:15.075Z,27.23
2019-05-14T00:08:17.626Z,27.17
2019-05-14T00:09:21.378Z,27.08
2019-05-14T00:10:22.446Z,27.17
2019-05-14T00:11:23.946Z,27.22
2019-05-14T00:12:25.328Z,27.27
2019-05-14T00:13:26.748Z,27.32
2019-05-14T00:14:38.724Z,27.27
2019-05-14T00:15:32.185Z,27.34
2019-05-14T00:16:33.779Z,27.29
2019-05-14T00:17:35.191Z,27.24
2019-05-14T00:18:36.569Z,27.26
2019-05-14T00:19:38.125Z,27.32
2019-05-14T00:20:41.796Z,27.32
2019-05-14T00:21:42.964Z,27.37
2019-05-14T00:22:44.500Z,27.29
2019-05-14T00:23:46.020Z,27.39
2019-05-14T00:24:47.429Z,27.39
2019-05-14T00:25:48.946Z,27.39
2019-05-14T00:26:51.716Z,27.27
2019-05-14T00:27:53.375Z,27.25
2019-05-14T00:28:54.844Z,27.32
2019-05-14T00:29:56.251Z,27.27
2019-05-14T00:30:57.620Z,27.10
2019-05-14T00:31:59.027Z,27.27
2019-05-14T00:33:01.245Z,27.25
2019-05-14T00:34:03.036Z,27.19
2019-05-14T00:35:05.698Z,27.18
2019-05-14T00:36:07.221Z,27.22
2019-05-14T00:37:08.616Z,27.20
2019-05-14T00:38:11.943Z,27.31
2019-05-14T00:39:13.323Z,27.30
2019-05-14T00:40:14.713Z,27.20
2019-05-14T00:41:16.100Z,27.20
2019-05-14T00:42:17.496Z,27.25
2019-05-14T00:43:18.891Z,27.29
2019-05-14T00:44:21.509Z,27.23
2019-05-14T00:45:23.083Z,27.15
2019-05-14T00:46:24.465Z,27.04
2019-05-14T00:47:25.864Z,26.99
2019-05-14T00:48:27.284Z,26.96
2019-05-14T00:49:28.672Z,26.95
2019-05-14T00:50:31.709Z,26.88
2019-05-14T00:51:33.264Z,26.91
2019-05-14T00:52:34.668Z,26.96
2019-05-14T00:53:36.112Z,26.91
2019-05-14T00:54:37.472Z,26.93
2019-05-14T00:55:41.947Z,26.99
2019-05-14T00:56:43.249Z,27.11
2019-05-14T00:57:44.654Z,27.18
2019-05-14T00:58:46.039Z,27.08
2019-05-14T00:59:47.424Z,27.14
2019-05-14T01:00:48.824Z,27.13
2019-05-14T01:01:51.661Z,27.15
2019-05-14T01:02:53.224Z,27.20
2019-05-14T01:03:55.658Z,27.20
2019-05-14T01:04:57.052Z,27.45
2019-05-14T01:05:58.680Z,27.30
2019-05-14T01:07:01.578Z,27.23
2019-05-14T01:08:04.204Z,27.23
2019-05-14T01:09:05.706Z,27.25
2019-05-14T01:10:07.982Z,27.25
2019-05-14T01:11:11.858Z,27.34
2019-05-14T01:12:13.360Z,27.29
2019-05-14T01:13:14.759Z,27.29
2019-05-14T01:14:16.309Z,27.24
2019-05-14T01:15:17.730Z,27.23
2019-05-14T01:16:19.137Z,27.20
2019-05-14T01:17:22.500Z,27.39
2019-05-14T01:18:23.876Z,27.48
2019-05-14T01:19:25.306Z,27.55
2019-05-14T01:20:26.681Z,27.51
2019-05-14T01:21:28.084Z,27.45
2019-05-14T01:22:31.603Z,27.22
2019-05-14T01:23:32.764Z,27.23
2019-05-14T01:24:34.152Z,27.26
2019-05-14T01:25:35.569Z,27.32
2019-05-14T01:26:37.080Z,27.29
2019-05-14T01:27:38.489Z,27.41
2019-05-14T01:28:41.495Z,27.32
2019-05-14T01:29:43.144Z,27.32
2019-05-14T01:30:44.514Z,27.21
2019-05-14T01:31:45.924Z,27.22
2019-05-14T01:32:47.300Z,27.21
2019-05-14T01:33:48.699Z,27.25
2019-05-14T01:34:52.207Z,27.19
2019-05-14T01:35:53.409Z,27.22
2019-05-14T01:36:54.864Z,27.25
2019-05-14T01:37:56.344Z,27.27
2019-05-14T01:38:57.745Z,27.26
2019-05-14T01:40:01.130Z,27.37
2019-05-14T01:41:02.455Z,27.45
2019-05-14T01:42:03.944Z,27.43
2019-05-14T01:43:05.343Z,27.50
2019-05-14T01:44:06.732Z,27.46
2019-05-14T01:45:21.944Z,27.48
2019-05-14T01:46:12.252Z,27.46
2019-05-14T01:47:13.732Z,27.30
2019-05-14T01:48:15.109Z,27.31
2019-05-14T01:49:16.513Z,27.40
2019-05-14T01:50:17.903Z,27.29
2019-05-14T01:51:19.394Z,27.31
2019-05-14T01:52:21.836Z,27.32
2019-05-14T01:53:23.602Z,27.37
2019-05-14T01:54:25.996Z,27.40
2019-05-14T01:55:27.395Z,27.46
2019-05-14T01:56:28.773Z,27.50
2019-05-14T01:57:31.171Z,27.40
2019-05-14T01:58:32.653Z,27.34
2019-05-14T01:59:34.052Z,27.39
2019-05-14T02:00:35.580Z,27.40
2019-05-14T02:01:36.988Z,27.32
2019-05-14T02:02:38.376Z,27.37
2019-05-14T02:03:41.097Z,27.36
2019-05-14T02:04:43.045Z,27.27
2019-05-14T02:05:45.552Z,27.26
2019-05-14T02:06:46.956Z,27.27
2019-05-14T02:07:48.600Z,27.25
2019-05-14T02:08:51.512Z,27.25
2019-05-14T02:09:53.199Z,27.28
2019-05-14T02:10:54.690Z,27.35
2019-05-14T02:11:56.081Z,27.40
2019-05-14T02:12:57.473Z,27.40
2019-05-14T02:13:58.861Z,27.43
2019-05-14T02:15:01.894Z,27.39
2019-05-14T02:16:04.676Z,27.28
2019-05-14T02:17:06.051Z,27.30
2019-05-14T02:18:07.448Z,27.39
2019-05-14T02:19:08.831Z,27.28
2019-05-14T02:20:12.567Z,27.37
2019-05-14T02:21:13.816Z,27.29
2019-05-14T02:22:15.205Z,27.16
2019-05-14T02:23:16.597Z,27.14
2019-05-14T02:24:17.986Z,27.27
2019-05-14T02:25:21.607Z,27.32
2019-05-14T02:26:23.080Z,27.38
2019-05-14T02:27:25.475Z,27.28
2019-05-14T02:28:26.865Z,27.34
2019-05-14T02:29:28.360Z,27.25
2019-05-14T02:30:45.647Z,27.30
2019-05-14T02:31:33.193Z,27.35
2019-05-14T02:32:34.584Z,27.31
2019-05-14T02:33:39.448Z,27.28
2019-05-14T02:34:40.282Z,27.33
2019-05-14T02:35:41.951Z,27.36
2019-05-14T02:36:43.377Z,27.44
2019-05-14T02:37:44.758Z,27.45
2019-05-14T02:38:49.093Z,27.43
2019-05-14T02:39:50.297Z,27.41
2019-05-14T02:40:51.998Z,27.37
2019-05-14T02:41:53.391Z,27.38
2019-05-14T02:42:54.767Z,27.30
2019-05-14T02:43:59.178Z,27.32
2019-05-14T02:44:59.565Z,27.34
2019-05-14T02:46:11.232Z,27.32
2019-05-14T02:47:04.457Z,27.37
2019-05-14T02:48:05.837Z,27.45
2019-05-14T02:49:10.468Z,27.33
2019-05-14T02:50:11.752Z,27.31
2019-05-14T02:51:13.149Z,27.33
2019-05-14T02:52:15.577Z,27.36
2019-05-14T02:53:19.903Z,27.32
2019-05-14T02:54:22.160Z,27.26
2019-05-14T02:55:23.546Z,27.42
2019-05-14T02:56:24.938Z,27.44
2019-05-14T02:57:26.373Z,27.46
2019-05-14T02:58:29.876Z,27.44
2019-05-14T02:59:31.052Z,27.42
2019-05-14T03:00:33.651Z,27.38
2019-05-14T03:01:35.152Z,27.37
2019-05-14T03:02:40.039Z,27.26
2019-05-14T03:03:40.477Z,27.34
2019-05-14T03:04:43.130Z,27.36
2019-05-14T03:05:44.635Z,27.33
2019-05-14T03:06:46.042Z,27.25
2019-05-14T03:07:49.943Z,27.27
2019-05-14T03:08:51.128Z,27.18
2019-05-14T03:09:52.624Z,27.26
2019-05-14T03:10:54.009Z,27.19
2019-05-14T03:11:55.397Z,27.21
2019-05-14T03:12:59.032Z,27.23
2019-05-14T03:14:00.223Z,27.26
2019-05-14T03:15:02.206Z,27.30
2019-05-14T03:16:20.872Z,27.29
2019-05-14T03:17:10.387Z,27.29
2019-05-14T03:18:10.519Z,27.20
2019-05-14T03:19:11.900Z,27.25
2019-05-14T03:20:13.395Z,27.23
2019-05-14T03:21:14.780Z,27.29
2019-05-14T03:22:16.188Z,27.23
2019-05-14T03:23:22.411Z,27.24
2019-05-14T03:24:21.063Z,27.26
2019-05-14T03:25:22.453Z,27.20
2019-05-14T03:26:23.831Z,27.22
2019-05-14T03:27:25.324Z,27.19
2019-05-14T03:28:30.091Z,27.13
2019-05-14T03:29:30.996Z,27.14
2019-05-14T03:30:33.162Z,27.13
2019-05-14T03:31:34.800Z,27.18
2019-05-14T03:32:41.766Z,27.08
2019-05-14T03:33:44.079Z,27.16
2019-05-14T03:34:44.084Z,27.10
2019-05-14T03:35:56.314Z,27.13
2019-05-14T03:36:52.742Z,27.15
2019-05-14T03:37:52.310Z,27.08
2019-05-14T03:38:53.844Z,27.05
2019-05-14T03:39:55.323Z,27.07
2019-05-14T03:41:00.001Z,27.12
2019-05-14T03:42:00.719Z,27.20
2019-05-14T03:43:02.120Z,27.10
2019-05-14T03:44:03.534Z,27.11
2019-05-14T03:45:05.219Z,27.10
2019-05-14T03:46:09.480Z,27.21
2019-05-14T03:47:10.683Z,27.19
2019-05-14T03:48:12.398Z,27.12
2019-05-14T03:49:13.797Z,27.09
2019-05-14T03:50:15.277Z,27.17
2019-05-14T03:51:16.688Z,27.20
2019-05-14T03:52:19.933Z,27.12
2019-05-14T03:53:21.385Z,27.16
2019-05-14T03:54:22.874Z,27.06
2019-05-14T03:55:24.261Z,27.14
2019-05-14T03:56:25.650Z,27.23
2019-05-14T03:57:29.204Z,27.16
2019-05-14T03:58:30.666Z,27.21
2019-05-14T03:59:32.672Z,27.23
2019-05-14T04:00:39.000Z,27.22
2019-05-14T04:01:40.715Z,27.11
2019-05-14T04:02:42.193Z,27.07
2019-05-14T04:03:43.789Z,27.07
2019-05-14T04:04:45.185Z,27.08
2019-05-14T04:05:49.436Z,27.00
2019-05-14T04:06:53.013Z,27.05
2019-05-14T04:07:54.898Z,27.05
2019-05-14T04:09:00.565Z,27.00
2019-05-14T04:10:04.270Z,26.96
2019-05-14T04:11:09.535Z,26.96
2019-05-14T04:12:11.885Z,26.87
2019-05-14T04:13:14.581Z,26.90
2019-05-14T04:14:19.871Z,26.96
2019-05-14T04:15:23.874Z,26.97
2019-05-14T04:16:29.220Z,27.01
2019-05-14T04:17:37.683Z,26.96
2019-05-14T04:18:40.205Z,26.95
2019-05-14T04:19:42.457Z,26.97
2019-05-14T04:20:49.746Z,26.91
2019-05-14T04:21:50.247Z,26.90
2019-05-14T04:22:53.027Z,26.87
2019-05-14T04:23:59.176Z,26.83
2019-05-14T04:25:01.331Z,26.90
2019-05-14T04:26:03.458Z,26.86
2019-05-14T04:27:09.274Z,26.82
2019-05-14T04:28:19.145Z,26.84
2019-05-14T04:29:22.900Z,26.82
2019-05-14T04:30:24.694Z,26.79
2019-05-14T04:31:29.857Z,26.95
2019-05-14T04:32:31.762Z,26.90
2019-05-14T04:33:33.869Z,26.80
2019-05-14T04:34:35.286Z,26.76
2019-05-14T04:35:40.095Z,26.78
2019-05-14T04:36:41.151Z,26.79
2019-05-14T04:37:42.532Z,26.74
2019-05-14T04:38:43.907Z,26.84
2019-05-14T04:39:45.365Z,26.81
2019-05-14T04:40:49.414Z,26.80
2019-05-14T04:41:50.170Z,26.87
2019-05-14T04:42:51.551Z,26.77
2019-05-14T04:43:52.941Z,26.83
2019-05-14T04:44:54.360Z,26.83
2019-05-14T04:45:58.877Z,26.83
2019-05-14T04:47:00.125Z,26.85
2019-05-14T04:48:21.428Z,26.75
2019-05-14T04:49:05.804Z,26.76
2019-05-14T04:50:10.589Z,26.82
2019-05-14T04:51:10.601Z,26.72
2019-05-14T04:52:12.015Z,26.78
2019-05-14T04:53:13.631Z,26.75
2019-05-14T04:54:15.042Z,26.74
2019-05-14T04:55:16.478Z,26.67
2019-05-14T04:56:19.609Z,26.65
2019-05-14T04:57:25.383Z,26.74
2019-05-14T04:58:24.465Z,26.85
2019-05-14T04:59:25.963Z,26.79
2019-05-14T05:00:30.543Z,26.75
2019-05-14T05:01:30.659Z,26.77
2019-05-14T05:02:32.069Z,26.75
2019-05-14T05:03:33.618Z,26.74
2019-05-14T05:04:35.031Z,26.74
2019-05-14T05:05:39.275Z,26.75
2019-05-14T05:06:39.939Z,26.75
2019-05-14T05:07:41.549Z,26.74
2019-05-14T05:08:43.033Z,26.78
2019-05-14T05:09:44.423Z,26.77
2019-05-14T05:10:49.191Z,26.75
2019-05-14T05:11:49.948Z,26.72
2019-05-14T05:12:51.729Z,26.66
2019-05-14T05:13:53.224Z,26.59
2019-05-14T05:14:55.027Z,26.60
2019-05-14T05:15:59.122Z,26.61
2019-05-14T05:16:59.993Z,26.56
2019-05-14T05:18:01.535Z,26.48
2019-05-14T05:19:02.968Z,26.45
2019-05-14T05:20:05.269Z,26.46
2019-05-14T05:21:08.236Z,26.36
2019-05-14T05:22:09.967Z,26.31
2019-05-14T05:23:11.569Z,26.22
2019-05-14T05:24:13.059Z,26.22
2019-05-14T05:25:14.439Z,26.12
2019-05-14T05:26:18.279Z,26.04
2019-05-14T05:27:19.120Z,25.96
2019-05-14T05:28:20.530Z,25.96
2019-05-14T05:29:21.905Z,25.86
2019-05-14T05:30:23.306Z,25.84
2019-05-14T05:31:24.681Z,25.77
2019-05-14T05:32:28.379Z,25.70
2019-05-14T05:33:29.596Z,25.64
2019-05-14T05:34:32.081Z,25.58
2019-05-14T05:35:33.462Z,25.50
2019-05-14T05:36:34.848Z,25.44
2019-05-14T05:37:38.396Z,25.36
2019-05-14T05:38:39.797Z,25.31
2019-05-14T05:39:41.348Z,25.29
2019-05-14T05:40:42.739Z,25.28
2019-05-14T05:41:44.946Z,25.18
2019-05-14T05:42:48.818Z,25.14
2019-05-14T05:43:49.753Z,25.08
2019-05-14T05:44:51.137Z,25.01
2019-05-14T05:45:52.526Z,24.97
2019-05-14T05:46:53.913Z,24.88
2019-05-14T05:48:01.009Z,24.87
2019-05-14T05:48:58.921Z,24.81
2019-05-14T05:50:00.472Z,24.77
2019-05-14T05:51:01.877Z,24.81
2019-05-14T05:52:03.247Z,24.73
2019-05-14T05:53:04.660Z,24.62
2019-05-14T05:54:06.040Z,24.61
2019-05-14T05:55:08.895Z,24.61
2019-05-14T05:56:10.568Z,24.61
2019-05-14T05:57:12.076Z,24.68
2019-05-14T05:58:13.489Z,24.60
2019-05-14T05:59:14.893Z,24.62
2019-05-14T06:00:32.071Z,24.57
2019-05-14T06:01:42.938Z,24.56
2019-05-14T06:02:39.603Z,24.45
2019-05-14T06:03:40.367Z,24.29
2019-05-14T06:04:41.748Z,24.22
2019-05-14T06:05:43.157Z,24.22
2019-05-14T06:06:44.571Z,24.25
2019-05-14T06:07:48.137Z,24.15
2019-05-14T06:08:49.573Z,24.12
2019-05-14T06:09:51.106Z,24.16
2019-05-14T06:10:52.592Z,24.13
2019-05-14T06:11:54.061Z,24.15
2019-05-14T06:12:55.441Z,24.14
2019-05-14T06:13:58.924Z,24.09
2019-05-14T06:15:00.256Z,24.09
2019-05-14T06:16:01.671Z,24.05
2019-05-14T06:17:03.080Z,24.00
2019-05-14T06:18:15.198Z,24.02
2019-05-14T06:19:08.367Z,23.98
2019-05-14T06:20:10.943Z,23.99
2019-05-14T06:21:12.314Z,23.94
2019-05-14T06:22:13.717Z,23.93
2019-05-14T06:23:15.095Z,23.91
2019-05-14T06:24:19.149Z,23.83
2019-05-14T06:25:21.165Z,23.86
2019-05-14T06:26:22.764Z,23.80
2019-05-14T06:27:24.161Z,23.73
2019-05-14T06:28:30.118Z,23.76
2019-05-14T06:29:29.165Z,23.83
2019-05-14T06:30:36.057Z,23.80
2019-05-14T06:31:38.624Z,23.70
2019-05-14T06:32:40.556Z,23.81
2019-05-14T06:33:41.949Z,23.79
2019-05-14T06:34:43.335Z,23.68
2019-05-14T06:35:44.726Z,23.65
2019-05-14T06:36:48.576Z,23.55
2019-05-14T06:37:51.313Z,23.64
2019-05-14T06:38:52.702Z,23.56
2019-05-14T06:39:54.096Z,23.63
2019-05-14T06:40:55.493Z,23.63
2019-05-14T06:41:58.545Z,23.70
2019-05-14T06:43:00.271Z,23.66
2019-05-14T06:44:01.679Z,23.69
2019-05-14T06:45:04.993Z,23.59
2019-05-14T06:46:08.963Z,23.64
2019-05-14T06:47:09.829Z,23.61
2019-05-14T06:48:26.413Z,23.58
2019-05-14T06:49:14.520Z,23.60
2019-05-14T06:50:15.922Z,23.55
2019-05-14T06:51:19.891Z,23.61
2019-05-14T06:52:20.759Z,23.66
2019-05-14T06:53:22.172Z,23.53
2019-05-14T06:54:23.585Z,23.56
2019-05-14T06:55:24.996Z,23.52
2019-05-14T06:56:28.198Z,23.65
2019-05-14T06:57:29.921Z,23.65
2019-05-14T06:58:31.322Z,23.61
2019-05-14T06:59:32.703Z,23.58
2019-05-14T07:00:34.106Z,23.62
2019-05-14T07:01:35.496Z,23.58
2019-05-14T07:02:43.314Z,23.51
2019-05-14T07:03:40.318Z,23.55
2019-05-14T07:04:41.727Z,23.54
2019-05-14T07:05:43.140Z,23.61
2019-05-14T07:06:44.559Z,23.59
2019-05-14T07:07:49.092Z,23.58
2019-05-14T07:08:52.542Z,23.51
2019-05-14T07:09:52.601Z,23.60
2019-05-14T07:10:54.017Z,23.62
2019-05-14T07:11:55.560Z,23.66
2019-05-14T07:12:59.240Z,23.63
2019-05-14T07:14:00.572Z,23.62
2019-05-14T07:15:02.487Z,23.57
2019-05-14T07:16:03.890Z,23.54
2019-05-14T07:17:05.290Z,23.57
2019-05-14T07:18:08.671Z,23.65
2019-05-14T07:19:10.376Z,23.64
2019-05-14T07:20:12.356Z,23.66
2019-05-14T07:21:13.753Z,23.66
2019-05-14T07:22:15.169Z,23.56
2019-05-14T07:23:19.190Z,23.70
2019-05-14T07:24:20.108Z,23.71
2019-05-14T07:25:21.525Z,23.71
2019-05-14T07:26:22.941Z,23.72
2019-05-14T07:27:24.335Z,23.77
2019-05-14T07:28:28.597Z,23.76
2019-05-14T07:29:29.478Z,23.73
2019-05-14T07:30:30.902Z,23.74
2019-05-14T07:31:32.404Z,23.72
2019-05-14T07:32:33.902Z,23.83
2019-05-14T07:33:35.312Z,23.92
2019-05-14T07:34:38.833Z,23.91
2019-05-14T07:35:40.129Z,23.94
2019-05-14T07:36:41.548Z,23.92
2019-05-14T07:37:42.948Z,23.99
2019-05-14T07:38:44.333Z,23.95
2019-05-14T07:39:45.731Z,24.04
2019-05-14T07:40:49.499Z,24.11
2019-05-14T07:41:50.428Z,24.19
2019-05-14T07:42:52.041Z,24.30
2019-05-14T07:43:53.707Z,24.42
2019-05-14T07:44:55.130Z,24.66
2019-05-14T07:45:58.197Z,24.46
2019-05-14T07:46:59.853Z,24.25
2019-05-14T07:48:01.278Z,24.32
2019-05-14T07:49:08.175Z,24.61
2019-05-14T07:50:08.637Z,24.71
2019-05-14T07:51:10.231Z,24.43
2019-05-14T07:52:11.630Z,24.43
2019-05-14T07:53:13.173Z,24.70
2019-05-14T07:54:14.599Z,24.48
2019-05-14T07:55:18.340Z,24.24
2019-05-14T07:56:19.421Z,24.38
2019-05-14T07:57:20.840Z,24.32
2019-05-14T07:58:23.457Z,24.15
2019-05-14T07:59:24.833Z,24.03
2019-05-14T08:00:28.574Z,23.98
2019-05-14T08:01:29.611Z,23.76
2019-05-14T08:02:31.108Z,23.70
2019-05-14T08:03:32.508Z,23.74
2019-05-14T08:04:33.924Z,23.69
2019-05-14T08:05:35.333Z,23.66
2019-05-14T08:06:39.401Z,23.66
2019-05-14T08:07:41.053Z,23.48
2019-05-14T08:08:42.456Z,23.49
2019-05-14T08:09:43.848Z,23.43
2019-05-14T08:10:45.248Z,23.48
2019-05-14T08:11:48.028Z,23.32
2019-05-14T08:12:49.735Z,23.28
2019-05-14T08:13:51.125Z,23.33
2019-05-14T08:15:13.083Z,23.42
2019-05-14T08:15:58.356Z,23.43
2019-05-14T08:17:00.034Z,23.44
2019-05-14T08:18:01.449Z,23.42
2019-05-14T08:19:04.947Z,23.42
2019-05-14T08:20:09.028Z,23.40
2019-05-14T08:21:10.633Z,23.53
2019-05-14T08:22:12.203Z,23.52
2019-05-14T08:23:13.607Z,23.44
2019-05-14T08:24:15.321Z,23.43
2019-05-14T08:25:19.014Z,23.37
2019-05-14T08:26:20.628Z,23.36
2019-05-14T08:27:22.144Z,23.34
2019-05-14T08:28:23.570Z,23.37
2019-05-14T08:29:25.001Z,23.45
2019-05-14T08:30:28.308Z,23.48
2019-05-14T08:31:29.892Z,23.43
2019-05-14T08:32:31.374Z,23.43
2019-05-14T08:33:32.804Z,23.48
2019-05-14T08:34:34.192Z,23.42
2019-05-14T08:35:35.597Z,23.47
2019-05-14T08:36:37.950Z,23.44
2019-05-14T08:37:39.622Z,23.53
2019-05-14T08:38:45.407Z,23.52
2019-05-14T08:39:45.446Z,23.40
2019-05-14T08:40:48.946Z,23.38
2019-05-14T08:41:55.985Z,23.29
2019-05-14T08:42:53.435Z,23.38
2019-05-14T08:43:54.821Z,23.32
2019-05-14T08:44:56.269Z,23.34
2019-05-14T08:45:58.806Z,23.34
2019-05-14T08:47:00.248Z,23.39
2019-05-14T08:48:01.640Z,23.32
2019-05-14T08:49:03.015Z,23.33
2019-05-14T08:50:05.027Z,23.34
2019-05-14T08:51:08.902Z,23.31
2019-05-14T08:52:10.812Z,23.30
2019-05-14T08:53:12.204Z,23.37
2019-05-14T08:54:13.601Z,23.33
2019-05-14T08:55:15.009Z,23.37
2019-05-14T08:56:18.902Z,23.31
2019-05-14T08:57:19.771Z,23.13
2019-05-14T08:58:21.244Z,23.12
2019-05-14T08:59:22.789Z,23.22
2019-05-14T09:00:24.176Z,23.32
2019-05-14T09:01:25.568Z,23.26
2019-05-14T09:02:28.659Z,23.19
2019-05-14T09:03:30.246Z,23.20
2019-05-14T09:04:31.638Z,23.22
2019-05-14T09:05:33.556Z,23.18
2019-05-14T09:06:35.041Z,23.27
2019-05-14T09:07:38.395Z,23.29
2019-05-14T09:08:39.852Z,23.33
2019-05-14T09:09:41.449Z,23.26
2019-05-14T09:10:43.024Z,23.15
2019-05-14T09:11:46.370Z,23.14
2019-05-14T09:12:49.147Z,23.19
2019-05-14T09:13:50.680Z,23.26
2019-05-14T09:14:52.063Z,23.14
2019-05-14T09:15:53.532Z,23.06
2019-05-14T09:16:54.910Z,23.21
2019-05-14T09:17:59.077Z,23.18
2019-05-14T09:19:00.588Z,23.15
2019-05-14T09:20:07.278Z,23.21
2019-05-14T09:21:08.634Z,23.24
2019-05-14T09:22:10.369Z,23.24
2019-05-14T09:23:11.757Z,23.29
2019-05-14T09:24:13.149Z,23.25
2019-05-14T09:25:14.628Z,23.23
2019-05-14T09:26:18.183Z,23.13
2019-05-14T09:27:19.518Z,23.14
2019-05-14T09:28:21.007Z,23.15
2019-05-14T09:29:26.068Z,23.18
2019-05-14T09:30:25.699Z,23.08
2019-05-14T09:31:29.551Z,23.11
2019-05-14T09:32:30.546Z,23.08
2019-05-14T09:33:32.005Z,22.98
2019-05-14T09:34:33.417Z,22.98
2019-05-14T09:35:34.799Z,23.03
2019-05-14T09:36:36.190Z,23.04
2019-05-14T09:37:39.516Z,23.07
2019-05-14T09:38:42.453Z,23.04
2019-05-14T09:39:44.178Z,23.04
2019-05-14T09:40:45.574Z,23.01
2019-05-14T09:41:48.239Z,23.15
2019-05-14T09:42:50.283Z,23.08
2019-05-14T09:43:51.878Z,23.06
2019-05-14T09:44:53.257Z,23.14
2019-05-14T09:45:54.760Z,23.08
2019-05-14T09:46:56.264Z,23.13
2019-05-14T09:47:58.572Z,23.09
2019-05-14T09:49:00.043Z,23.15
2019-05-14T09:50:15.239Z,23.14
2019-05-14T09:51:04.929Z,23.03
2019-05-14T09:52:08.820Z,23.05
2019-05-14T09:53:09.904Z,23.02
2019-05-14T09:54:11.428Z,22.99
2019-05-14T09:55:12.914Z,23.00
2019-05-14T09:56:14.353Z,23.06
2019-05-14T09:57:15.748Z,23.07
2019-05-14T09:58:19.952Z,22.98
2019-05-14T09:59:20.438Z,23.05
2019-05-14T10:00:22.150Z,23.10
2019-05-14T10:01:23.528Z,23.11
2019-05-14T10:02:25.033Z,23.09
2019-05-14T10:03:26.509Z,23.08
2019-05-14T10:04:27.915Z,23.06
2019-05-14T10:05:29.298Z,23.02
2019-05-14T10:06:30.701Z,23.08
2019-05-14T10:07:32.193Z,22.99
2019-05-14T10:08:33.589Z,23.11
2019-05-14T10:09:35.087Z,23.12
2019-05-14T10:10:36.470Z,23.11
2019-05-14T10:11:38.477Z,23.10
2019-05-14T10:12:51.810Z,23.02
2019-05-14T10:13:43.263Z,23.06
2019-05-14T10:14:44.671Z,22.95
2019-05-14T10:15:48.452Z,22.94
2019-05-14T10:16:50.630Z,23.07
2019-05-14T10:17:52.027Z,23.13
2019-05-14T10:18:53.406Z,23.14
2019-05-14T10:19:54.796Z,23.08
2019-05-14T10:20:56.181Z,23.11
2019-05-14T10:21:58.828Z,23.04
2019-05-14T10:23:00.400Z,23.09
2019-05-14T10:24:02.877Z,23.09
2019-05-14T10:25:04.627Z,23.21
2019-05-14T10:26:05.949Z,23.20
2019-05-14T10:27:08.936Z,23.24
2019-05-14T10:28:10.872Z,23.19
2019-05-14T10:29:12.358Z,23.20
2019-05-14T10:30:13.973Z,23.22
2019-05-14T10:31:18.107Z,23.15
2019-05-14T10:32:19.139Z,23.09
2019-05-14T10:33:20.547Z,23.09
2019-05-14T10:34:21.926Z,23.10
2019-05-14T10:35:23.342Z,23.20
2019-05-14T10:36:24.720Z,23.28
2019-05-14T10:37:28.604Z,23.16
2019-05-14T10:38:29.723Z,23.13
2019-05-14T10:39:31.135Z,23.12
2019-05-14T10:40:32.518Z,23.17
2019-05-14T10:41:33.921Z,23.18
2019-05-14T10:42:35.397Z,23.17
2019-05-14T10:43:38.943Z,23.12
2019-05-14T10:44:40.117Z,23.03
2019-05-14T10:45:41.529Z,22.97
2019-05-14T10:46:42.904Z,23.18
2019-05-14T10:47:44.376Z,23.34
2019-05-14T10:48:45.769Z,23.38
2019-05-14T10:49:47.169Z,23.27
2019-05-14T10:50:58.893Z,23.23
2019-05-14T10:51:51.821Z,23.33
2019-05-14T10:52:53.211Z,23.41
2019-05-14T10:53:54.637Z,23.50
2019-05-14T10:54:56.850Z,23.58
2019-05-14T10:55:59.302Z,23.48
2019-05-14T10:57:00.681Z,23.55
2019-05-14T10:58:02.117Z,23.55
2019-05-14T10:59:03.567Z,23.48
2019-05-14T11:00:08.627Z,23.66
2019-05-14T11:01:11.396Z,23.57
2019-05-14T11:02:12.258Z,23.42
2019-05-14T11:03:13.713Z,23.66
2019-05-14T11:04:15.207Z,23.70
2019-05-14T11:05:18.728Z,23.70
2019-05-14T11:06:19.878Z,23.74
2019-05-14T11:07:21.257Z,23.71
2019-05-14T11:08:22.686Z,23.97
2019-05-14T11:09:24.177Z,23.95
2019-05-14T11:10:25.661Z,23.83
2019-05-14T11:11:29.031Z,23.96
2019-05-14T11:12:30.445Z,24.17
2019-05-14T11:13:31.945Z,24.05
2019-05-14T11:14:33.437Z,23.87
2019-05-14T11:15:34.854Z,23.84
2019-05-14T11:16:41.514Z,23.93
2019-05-14T11:17:40.760Z,24.11
2019-05-14T11:18:42.425Z,24.08
2019-05-14T11:19:43.841Z,23.98
2019-05-14T11:20:45.231Z,23.87
2019-05-14T11:21:48.420Z,23.82
2019-05-14T11:22:50.112Z,23.55
2019-05-14T11:23:52.497Z,23.80
2019-05-14T11:24:53.900Z,23.57
2019-05-14T11:25:55.269Z,23.79
2019-05-14T11:26:58.974Z,23.64
2019-05-14T11:27:59.967Z,23.48
2019-05-14T11:29:01.363Z,23.54
2019-05-14T11:30:04.384Z,23.79
2019-05-14T11:31:05.772Z,23.65
2019-05-14T11:32:09.641Z,23.29
2019-05-14T11:33:10.441Z,23.40
2019-05-14T11:34:11.951Z,23.22
2019-05-14T11:35:13.732Z,23.05
2019-05-14T11:36:15.114Z,23.16
2019-05-14T11:37:18.645Z,23.24
2019-05-14T11:38:31.776Z,23.26
2019-05-14T11:39:23.182Z,23.16
2019-05-14T11:40:24.598Z,23.03
2019-05-14T11:41:25.981Z,23.08
2019-05-14T11:42:31.141Z,23.03
2019-05-14T11:43:30.690Z,22.99
2019-05-14T11:44:32.080Z,22.98
2019-05-14T11:45:33.585Z,23.07
2019-05-14T11:46:50.416Z,23.02
2019-05-14T11:47:38.290Z,23.10
2019-05-14T11:48:39.665Z,23.10
2019-05-14T11:49:41.141Z,23.01
2019-05-14T11:50:42.554Z,22.87
2019-05-14T11:52:01.012Z,23.07
2019-05-14T11:52:48.426Z,23.09
2019-05-14T11:53:49.973Z,23.14
2019-05-14T11:54:51.378Z,23.09
2019-05-14T11:55:52.887Z,23.14
2019-05-14T11:56:54.264Z,23.21
2019-05-14T11:57:58.042Z,23.24
2019-05-14T11:58:59.188Z,23.00
2019-05-14T12:00:00.762Z,22.91
2019-05-14T12:01:02.303Z,23.08
2019-05-14T12:02:03.689Z,23.19
2019-05-14T12:03:05.080Z,23.05
2019-05-14T12:04:08.912Z,23.22
2019-05-14T12:05:09.761Z,23.34
2019-05-14T12:06:11.182Z,23.48
2019-05-14T12:07:12.564Z,23.28
2019-05-14T12:08:13.964Z,23.24
2019-05-14T12:09:15.387Z,23.12
2019-05-14T12:10:18.783Z,22.96
2019-05-14T12:11:20.424Z,23.06
2019-05-14T12:12:21.795Z,23.40
2019-05-14T12:13:23.191Z,23.45
2019-05-14T12:14:24.666Z,23.45
2019-05-14T12:15:26.065Z,23.44
2019-05-14T12:16:29.150Z,23.27
2019-05-14T12:17:30.701Z,23.23
2019-05-14T12:18:32.097Z,22.87
2019-05-14T12:19:33.488Z,23.08
2019-05-14T12:20:35.029Z,23.39
2019-05-14T12:21:36.443Z,23.37
2019-05-14T12:22:39.261Z,23.36
2019-05-14T12:23:40.918Z,22.99
2019-05-14T12:24:42.298Z,22.77
2019-05-14T12:25:44.081Z,22.74
2019-05-14T12:26:45.483Z,22.75
2019-05-14T12:27:49.459Z,22.64
2019-05-14T12:28:50.265Z,22.61
2019-05-14T12:29:51.642Z,22.66
2019-05-14T12:30:53.035Z,22.69
2019-05-14T12:31:54.527Z,22.73
2019-05-14T12:32:58.846Z,22.72
2019-05-14T12:33:59.269Z,22.64
2019-05-14T12:35:00.781Z,22.55
2019-05-14T12:36:02.277Z,22.53
2019-05-14T12:37:03.778Z,22.60
2019-05-14T12:38:05.267Z,22.92
2019-05-14T12:39:09.556Z,22.74
2019-05-14T12:40:10.861Z,22.81
2019-05-14T12:41:12.348Z,22.79
2019-05-14T12:42:13.771Z,22.67
2019-05-14T12:43:18.616Z,22.64
2019-05-14T12:44:19.792Z,22.70
2019-05-14T12:45:21.222Z,22.63
2019-05-14T12:46:22.607Z,22.75
2019-05-14T12:47:24.002Z,22.86
2019-05-14T12:48:25.381Z,22.94
2019-05-14T12:49:26.783Z,22.92
2019-05-14T12:50:28.185Z,22.70
2019-05-14T12:51:29.724Z,22.99
2019-05-14T12:52:31.120Z,22.90
2019-05-14T12:53:32.605Z,22.79
2019-05-14T12:54:33.998Z,22.79
2019-05-14T12:55:35.379Z,22.64
2019-05-14T12:56:38.942Z,22.42
2019-05-14T12:57:40.061Z,22.88
2019-05-14T12:58:45.518Z,22.78
2019-05-14T12:59:44.748Z,22.69
2019-05-14T13:00:48.494Z,22.44
2019-05-14T13:01:49.455Z,22.62
2019-05-14T13:02:50.850Z,22.61
2019-05-14T13:03:52.345Z,22.58
2019-05-14T13:04:53.737Z,22.64
2019-05-14T13:05:55.129Z,22.46
2019-05-14T13:06:59.547Z,22.28
2019-05-14T13:07:59.831Z,22.26
2019-05-14T13:09:01.238Z,22.25
2019-05-14T13:10:08.968Z,22.24
2019-05-14T13:11:10.007Z,22.22
2019-05-14T13:12:11.549Z,22.26
2019-05-14T13:13:12.984Z,22.25
2019-05-14T13:14:14.352Z,22.22
2019-05-14T13:15:15.754Z,22.11
2019-05-14T13:16:19.395Z,22.07
2019-05-14T13:17:20.461Z,21.98
2019-05-14T13:18:21.890Z,22.04
2019-05-14T13:19:23.268Z,22.11